createdAt,value
2022-08-26T00:01:44.042Z,5.53
2022-08-26T00:04:12.019Z,5.50
2022-08-26T00:06:42.620Z,5.85
2022-08-26T00:09:16.216Z,5.88
2022-08-26T00:11:44.742Z,6.47
2022-08-26T00:14:13.665Z,6.45
2022-08-26T00:16:47.241Z,6.30
2022-08-26T00:19:17.752Z,6.35
2022-08-26T00:21:46.335Z,6.20
2022-08-26T00:24:16.641Z,6.65
2022-08-26T00:26:43.958Z,6.65
2022-08-26T00:29:12.134Z,6.50
2022-08-26T00:31:40.023Z,5.68
2022-08-26T00:34:09.354Z,6.50
2022-08-26T00:36:36.789Z,6.68
2022-08-26T00:39:04.630Z,7.38
2022-08-26T00:41:34.374Z,7.53
2022-08-26T00:44:01.046Z,6.63
2022-08-26T00:46:33.417Z,7.07
2022-08-26T00:49:11.629Z,6.78
2022-08-26T00:51:53.290Z,7.15
2022-08-26T00:54:24.086Z,7.03
2022-08-26T00:57:08.718Z,6.72
2022-08-26T00:59:48.811Z,6.88
2022-08-26T01:02:21.257Z,6.97
2022-08-26T01:04:55.669Z,7.22
2022-08-26T01:07:25.546Z,6.82
2022-08-26T01:09:52.413Z,6.88
2022-08-26T01:12:22.239Z,7.53
2022-08-26T01:14:49.545Z,7.65
2022-08-26T01:17:16.605Z,8.45
2022-08-26T01:19:46.783Z,8.48
2022-08-26T01:22:28.717Z,8.32
2022-08-26T01:24:58.499Z,8.43
2022-08-26T01:27:27.224Z,8.40
2022-08-26T01:30:00.888Z,8.05
2022-08-26T01:32:31.226Z,8.05
2022-08-26T01:34:59.010Z,8.05
2022-08-26T01:37:29.906Z,7.38
2022-08-26T01:39:57.737Z,7.55
2022-08-26T01:42:27.315Z,7.32
2022-08-26T01:45:12.155Z,8.00
2022-08-26T01:47:38.994Z,7.82
2022-08-26T01:50:15.754Z,8.98
2022-08-26T01:52:55.918Z,8.18
2022-08-26T01:55:32.263Z,8.70
2022-08-26T01:58:04.552Z,8.65
2022-08-26T02:00:34.214Z,8.68
2022-08-26T02:03:17.817Z,8.32
2022-08-26T02:06:05.506Z,7.43
2022-08-26T02:08:43.343Z,7.88
2022-08-26T02:11:10.950Z,6.70
2022-08-26T02:13:44.973Z,7.93
2022-08-26T02:16:13.028Z,7.13
2022-08-26T02:18:42.061Z,7.13
2022-08-26T02:21:11.790Z,7.05
2022-08-26T02:23:39.692Z,8.05
2022-08-26T02:26:21.573Z,6.82
2022-08-26T02:29:03.821Z,6.97
2022-08-26T02:31:31.276Z,7.95
2022-08-26T02:34:13.951Z,7.43
2022-08-26T02:36:42.319Z,7.00
2022-08-26T02:39:09.263Z,7.18
2022-08-26T02:41:36.278Z,7.30
2022-08-26T02:44:12.191Z,8.38
2022-08-26T02:46:39.337Z,8.40
2022-08-26T02:49:06.879Z,8.77
2022-08-26T02:51:33.857Z,8.15
2022-08-26T02:54:00.578Z,9.25
2022-08-26T02:56:29.235Z,8.98
2022-08-26T02:58:56.403Z,9.13
2022-08-26T03:01:29.927Z,9.60
2022-08-26T03:03:57.526Z,8.27
2022-08-26T03:06:24.984Z,9.10
2022-08-26T03:08:52.563Z,9.50
2022-08-26T03:11:19.943Z,9.55
2022-08-26T03:13:46.644Z,9.57
2022-08-26T03:16:14.369Z,10.90
2022-08-26T03:18:41.745Z,11.02
2022-08-26T03:21:11.758Z,10.23
2022-08-26T03:23:39.645Z,11.10
2022-08-26T03:26:07.053Z,11.20
2022-08-26T03:28:58.017Z,11.52
2022-08-26T03:31:25.250Z,11.45
2022-08-26T03:33:52.851Z,12.52
2022-08-26T03:36:22.171Z,14.20
2022-08-26T03:38:49.094Z,14.20
2022-08-26T03:41:17.509Z,13.43
2022-08-26T03:43:44.854Z,13.68
2022-08-26T03:46:12.315Z,14.25
2022-08-26T03:48:39.609Z,13.27
2022-08-26T03:51:14.141Z,14.60
2022-08-26T03:53:46.197Z,14.30
2022-08-26T03:56:12.892Z,14.82
2022-08-26T03:58:39.566Z,15.35
2022-08-26T04:01:09.483Z,17.25
2022-08-26T04:03:54.939Z,16.48
2022-08-26T04:06:21.662Z,17.17
2022-08-26T04:08:48.399Z,18.65
2022-08-26T04:11:19.828Z,19.08
2022-08-26T04:13:47.862Z,19.40
2022-08-26T04:16:18.052Z,19.08
2022-08-26T04:18:46.517Z,19.00
2022-08-26T04:21:15.239Z,20.52
2022-08-26T04:23:47.784Z,20.58
2022-08-26T04:26:16.007Z,22.17
2022-08-26T04:28:42.917Z,20.33
2022-08-26T04:31:14.757Z,20.92
2022-08-26T04:33:43.776Z,22.08
2022-08-26T04:36:10.778Z,23.25
2022-08-26T04:38:37.691Z,21.27
2022-08-26T04:41:07.019Z,22.58
2022-08-26T04:43:42.571Z,24.10
2022-08-26T04:46:10.097Z,23.77
2022-08-26T04:48:40.813Z,23.30
2022-08-26T04:51:07.668Z,22.88
2022-08-26T04:53:34.743Z,22.95
2022-08-26T04:56:01.509Z,25.15
2022-08-26T04:58:31.083Z,26.10
2022-08-26T05:00:58.354Z,26.20
2022-08-26T05:03:27.020Z,27.25
2022-08-26T05:05:54.186Z,27.48
2022-08-26T05:08:22.979Z,27.63
2022-08-26T05:10:55.842Z,28.25
2022-08-26T05:13:25.082Z,30.17
2022-08-26T05:15:52.398Z,27.02
2022-08-26T05:18:22.953Z,28.95
2022-08-26T05:20:53.924Z,25.75
2022-08-26T05:23:22.796Z,26.10
2022-08-26T05:25:58.984Z,26.60
2022-08-26T05:28:29.853Z,28.05
2022-08-26T05:30:57.199Z,28.48
2022-08-26T05:33:24.152Z,27.75
2022-08-26T05:35:50.991Z,27.70
2022-08-26T05:38:20.838Z,26.35
2022-08-26T05:40:50.470Z,26.25
2022-08-26T05:43:21.324Z,26.40
2022-08-26T05:45:50.450Z,25.60
2022-08-26T05:48:24.431Z,26.58
2022-08-26T05:50:53.130Z,26.35
2022-08-26T05:53:22.203Z,26.45
2022-08-26T05:55:52.803Z,25.58
2022-08-26T05:58:21.364Z,26.63
2022-08-26T06:01:04.244Z,27.30
2022-08-26T06:03:36.973Z,27.17
2022-08-26T06:06:06.289Z,25.77
2022-08-26T06:08:34.592Z,26.25
2022-08-26T06:11:04.379Z,25.15
2022-08-26T06:13:33.458Z,26.30
2022-08-26T06:16:05.602Z,25.48
2022-08-26T06:18:36.236Z,25.63
2022-08-26T06:21:12.647Z,24.83
2022-08-26T06:23:58.167Z,24.88
2022-08-26T06:26:25.996Z,25.27
2022-08-26T06:28:53.052Z,24.58
2022-08-26T06:31:19.784Z,23.83
2022-08-26T06:33:46.836Z,24.08
2022-08-26T06:36:19.232Z,25.15
2022-08-26T06:38:50.719Z,24.98
2022-08-26T06:41:20.865Z,23.55
2022-08-26T06:43:47.740Z,22.60
2022-08-26T06:46:20.001Z,23.55
2022-08-26T06:51:43.452Z,20.85
2022-08-26T06:54:10.933Z,22.40
2022-08-26T06:56:43.169Z,24.83
2022-08-26T06:59:11.555Z,24.15
2022-08-26T07:01:44.791Z,21.98
2022-08-26T07:04:14.583Z,20.77
2022-08-26T07:06:50.109Z,22.67
2022-08-26T07:09:24.954Z,22.35
2022-08-26T07:11:52.804Z,21.85
2022-08-26T07:14:21.469Z,22.30
2022-08-26T07:16:49.601Z,22.70
2022-08-26T07:19:29.861Z,23.92
2022-08-26T07:21:57.635Z,22.40
2022-08-26T07:24:24.300Z,20.23
2022-08-26T07:26:59.144Z,21.92
2022-08-26T07:29:26.058Z,23.05
2022-08-26T07:31:53.545Z,21.95
2022-08-26T07:34:23.967Z,20.90
2022-08-26T07:36:51.509Z,20.83
2022-08-26T07:39:18.962Z,22.15
2022-08-26T07:41:47.210Z,20.77
2022-08-26T07:44:14.968Z,21.15
2022-08-26T07:46:42.123Z,19.35
2022-08-26T07:49:12.044Z,20.00
2022-08-26T07:51:39.646Z,20.70
2022-08-26T07:54:07.187Z,20.27
2022-08-26T07:56:34.118Z,20.50
2022-08-26T07:59:01.233Z,21.38
2022-08-26T08:01:31.359Z,20.60
2022-08-26T08:04:00.325Z,20.67
2022-08-26T08:06:29.146Z,21.38
2022-08-26T08:08:56.240Z,20.35
2022-08-26T08:11:24.566Z,19.42
2022-08-26T08:13:56.543Z,20.08
2022-08-26T08:16:32.116Z,20.88
2022-08-26T08:18:59.489Z,20.10
2022-08-26T08:21:28.152Z,20.52
2022-08-26T08:23:56.943Z,20.15
2022-08-26T08:26:25.049Z,18.77
2022-08-26T08:28:55.938Z,19.17
2022-08-26T08:31:52.441Z,21.05
2022-08-26T08:34:12.839Z,19.88
2022-08-26T08:36:39.731Z,20.58
2022-08-26T08:39:07.022Z,21.65
2022-08-26T08:41:41.461Z,20.45
2022-08-26T08:44:14.370Z,18.98
2022-08-26T08:46:44.250Z,20.83
2022-08-26T08:49:13.620Z,18.65
2022-08-26T08:51:59.396Z,18.63
2022-08-26T08:54:26.796Z,18.77
2022-08-26T08:56:59.716Z,18.83
2022-08-26T08:59:32.592Z,20.02
2022-08-26T09:02:31.956Z,19.17
2022-08-26T09:05:28.422Z,17.67
2022-08-26T09:08:03.994Z,18.92
2022-08-26T09:10:54.224Z,18.70
2022-08-26T09:13:25.287Z,17.73
2022-08-26T09:16:10.073Z,18.17
2022-08-26T09:18:59.260Z,18.75
2022-08-26T09:21:26.775Z,18.90
2022-08-26T09:23:57.000Z,18.38
2022-08-26T09:26:30.657Z,18.15
2022-08-26T09:29:05.366Z,19.13
2022-08-26T09:31:37.650Z,17.42
2022-08-26T09:34:24.415Z,18.50
2022-08-26T09:36:59.601Z,17.73
2022-08-26T09:39:29.090Z,17.98
2022-08-26T09:42:04.264Z,16.92
2022-08-26T09:44:32.989Z,17.60
2022-08-26T09:47:06.368Z,18.92
2022-08-26T09:49:38.752Z,16.55
2022-08-26T09:52:10.233Z,16.90
2022-08-26T09:54:38.563Z,17.77
2022-08-26T09:57:20.984Z,16.90
2022-08-26T09:59:49.413Z,16.75
2022-08-26T10:02:22.270Z,16.55
2022-08-26T10:04:55.365Z,17.25
2022-08-26T10:07:44.625Z,17.45
2022-08-26T10:10:16.832Z,15.65
2022-08-26T10:13:08.827Z,19.08
2022-08-26T10:15:51.208Z,16.35
2022-08-26T10:18:25.002Z,16.55
2022-08-26T10:21:08.805Z,16.77
2022-08-26T10:23:57.696Z,16.67
2022-08-26T10:26:32.680Z,15.80
2022-08-26T10:29:06.247Z,16.45
2022-08-26T10:31:48.601Z,15.15
2022-08-26T10:34:18.827Z,14.75
2022-08-26T10:37:15.206Z,15.55
2022-08-26T10:39:58.906Z,14.93
2022-08-26T10:42:37.750Z,14.30
2022-08-26T10:45:25.578Z,14.80
2022-08-26T10:48:06.798Z,13.50
2022-08-26T10:50:41.724Z,14.13
2022-08-26T10:53:33.977Z,13.27
2022-08-26T10:56:15.656Z,11.88
2022-08-26T10:59:23.134Z,12.35
2022-08-26T11:02:07.044Z,12.20
2022-08-26T11:05:05.709Z,12.13
2022-08-26T11:07:40.974Z,11.98
2022-08-26T11:10:42.907Z,12.07
2022-08-26T11:13:10.337Z,10.52
2022-08-26T11:15:40.720Z,11.50
2022-08-26T11:18:37.316Z,10.60
2022-08-26T11:21:44.704Z,11.50
2022-08-26T11:25:02.852Z,10.00
2022-08-26T11:27:35.458Z,9.63
2022-08-26T11:30:06.867Z,11.60
2022-08-26T11:32:34.303Z,9.40
2022-08-26T11:35:07.879Z,10.77
2022-08-26T11:37:42.519Z,10.38
2022-08-26T11:40:19.163Z,9.70
2022-08-26T11:42:54.821Z,10.10
2022-08-26T11:45:26.981Z,9.98
2022-08-26T11:47:54.728Z,10.45
2022-08-26T11:50:27.491Z,9.13
2022-08-26T11:53:04.095Z,9.85
2022-08-26T11:55:35.865Z,8.43
2022-08-26T11:58:06.371Z,8.20
2022-08-26T12:00:39.806Z,8.27
2022-08-26T12:03:20.931Z,8.77
2022-08-26T12:05:51.967Z,9.18
2022-08-26T12:08:23.130Z,8.60
2022-08-26T12:11:03.175Z,8.85
2022-08-26T12:13:30.102Z,8.98
2022-08-26T12:16:00.080Z,8.48
2022-08-26T12:18:35.314Z,7.95
2022-08-26T12:21:19.036Z,8.32
2022-08-26T12:23:49.981Z,7.05
2022-08-26T12:26:28.443Z,7.10
2022-08-26T12:29:01.154Z,6.82
2022-08-26T12:31:35.050Z,7.20
2022-08-26T12:34:04.802Z,6.70
2022-08-26T12:36:38.537Z,6.88
2022-08-26T12:39:07.827Z,6.22
2022-08-26T12:41:49.498Z,6.38
2022-08-26T12:44:36.708Z,6.03
2022-08-26T12:47:05.840Z,5.45
2022-08-26T12:49:32.567Z,5.60
2022-08-26T12:51:59.263Z,5.20
2022-08-26T12:54:46.343Z,5.03
2022-08-26T12:57:13.584Z,4.57
2022-08-26T12:59:40.326Z,4.80
2022-08-26T13:02:07.102Z,4.57
2022-08-26T13:04:37.056Z,4.50
2022-08-26T13:07:21.908Z,3.95
2022-08-26T13:09:50.587Z,3.55
2022-08-26T13:12:43.557Z,3.60
2022-08-26T13:15:10.242Z,3.13
2022-08-26T13:17:37.613Z,3.72
2022-08-26T13:20:04.796Z,4.10
2022-08-26T13:22:32.036Z,3.28
2022-08-26T13:24:58.946Z,3.20
2022-08-26T13:27:27.072Z,2.90
2022-08-26T13:29:54.764Z,3.08
2022-08-26T13:32:22.420Z,3.75
2022-08-26T13:34:54.651Z,3.50
2022-08-26T13:37:22.250Z,3.40
2022-08-26T13:40:00.756Z,2.88
2022-08-26T13:42:27.606Z,2.88
2022-08-26T13:44:57.828Z,2.83
2022-08-26T13:47:25.767Z,3.28
2022-08-26T13:49:54.564Z,3.08
2022-08-26T13:52:30.661Z,3.17
2022-08-26T13:54:59.976Z,2.70
2022-08-26T13:57:28.261Z,2.85
2022-08-26T13:59:56.404Z,2.53
2022-08-26T14:02:23.197Z,2.42
2022-08-26T14:04:50.035Z,2.25
2022-08-26T14:07:16.746Z,2.92
2022-08-26T14:09:43.435Z,2.97
2022-08-26T14:12:10.131Z,3.05
2022-08-26T14:14:36.810Z,2.85
2022-08-26T14:17:03.626Z,3.20
2022-08-26T14:19:31.355Z,3.60
2022-08-26T14:22:00.500Z,3.47
2022-08-26T14:24:27.490Z,2.80
2022-08-26T14:26:54.190Z,3.17
2022-08-26T14:29:20.891Z,2.72
2022-08-26T14:31:48.248Z,3.17
2022-08-26T14:34:15.321Z,3.55
2022-08-26T14:36:42.323Z,3.40
2022-08-26T14:39:12.013Z,3.65
2022-08-26T14:41:45.081Z,3.35
2022-08-26T14:44:14.730Z,3.13
2022-08-26T14:46:52.743Z,2.53
2022-08-26T14:49:20.933Z,2.58
2022-08-26T14:51:48.248Z,3.58
2022-08-26T14:54:16.368Z,2.55
2022-08-26T14:56:48.643Z,2.78
2022-08-26T14:59:17.826Z,2.83
2022-08-26T15:01:45.353Z,3.28
2022-08-26T15:04:12.499Z,2.97
2022-08-26T15:06:39.288Z,2.92
2022-08-26T15:09:06.081Z,2.75
2022-08-26T15:11:32.956Z,2.47
2022-08-26T15:13:59.897Z,2.97
2022-08-26T15:16:28.171Z,2.88
2022-08-26T15:18:55.602Z,2.75
2022-08-26T15:21:22.612Z,3.40
2022-08-26T15:23:50.200Z,2.78
2022-08-26T15:26:17.521Z,3.25
2022-08-26T15:28:45.150Z,2.67
2022-08-26T15:31:12.150Z,2.20
2022-08-26T15:33:39.516Z,2.05
2022-08-26T15:36:07.465Z,1.73
2022-08-26T15:38:40.066Z,1.95
2022-08-26T15:41:08.438Z,1.80
2022-08-26T15:43:36.730Z,2.00
2022-08-26T15:46:04.088Z,2.40
2022-08-26T15:48:30.873Z,2.63
2022-08-26T15:51:00.159Z,2.50
2022-08-26T15:53:29.468Z,1.83
2022-08-26T15:55:58.122Z,1.70
2022-08-26T15:58:27.350Z,2.25
2022-08-26T16:00:55.321Z,2.40
2022-08-26T16:03:22.586Z,2.05
2022-08-26T16:05:49.636Z,2.05
2022-08-26T16:08:16.872Z,2.08
2022-08-26T16:10:50.318Z,2.13
2022-08-26T16:13:19.813Z,2.05
2022-08-26T16:15:47.588Z,2.42
2022-08-26T16:18:15.761Z,2.00
2022-08-26T16:21:08.818Z,2.00
2022-08-26T16:23:37.416Z,1.90
2022-08-26T16:26:17.506Z,2.20
2022-08-26T16:28:44.639Z,2.15
2022-08-26T16:31:12.408Z,1.88
2022-08-26T16:33:39.512Z,1.85
2022-08-26T16:36:07.584Z,1.77
2022-08-26T16:38:35.405Z,2.00
2022-08-26T16:41:02.382Z,2.22
2022-08-26T16:43:29.180Z,1.92
2022-08-26T16:45:56.422Z,1.88
2022-08-26T16:48:23.648Z,2.05
2022-08-26T16:50:51.269Z,2.92
2022-08-26T16:53:18.658Z,1.67
2022-08-26T16:55:47.364Z,2.05
2022-08-26T16:58:14.579Z,2.17
2022-08-26T17:00:41.320Z,2.03
2022-08-26T17:03:08.313Z,2.53
2022-08-26T17:05:36.186Z,2.25
2022-08-26T17:08:03.835Z,2.38
2022-08-26T17:10:30.814Z,2.28
2022-08-26T17:12:57.683Z,2.22
2022-08-26T17:15:25.164Z,2.08
2022-08-26T17:17:53.337Z,2.05
2022-08-26T17:20:22.250Z,2.05
2022-08-26T17:22:50.682Z,2.25
2022-08-26T17:25:21.764Z,2.25
2022-08-26T17:27:48.565Z,2.35
2022-08-26T17:30:16.483Z,1.92
2022-08-26T17:32:43.256Z,1.95
2022-08-26T17:35:12.963Z,1.60
2022-08-26T17:37:40.616Z,2.30
2022-08-26T17:40:10.727Z,2.00
2022-08-26T17:42:38.940Z,2.10
2022-08-26T17:45:07.223Z,2.03
2022-08-26T17:47:34.569Z,1.80
2022-08-26T17:50:01.554Z,2.00
2022-08-26T17:52:29.222Z,1.95
2022-08-26T17:54:57.054Z,1.58
2022-08-26T17:57:24.447Z,1.83
2022-08-26T17:59:51.489Z,2.10
2022-08-26T18:02:20.909Z,1.92
2022-08-26T18:04:47.877Z,2.20
2022-08-26T18:07:15.043Z,1.73
2022-08-26T18:09:41.741Z,1.98
2022-08-26T18:12:08.564Z,1.75
2022-08-26T18:14:35.383Z,1.85
2022-08-26T18:17:02.066Z,2.22
2022-08-26T18:19:29.657Z,1.90
2022-08-26T18:21:56.719Z,2.28
2022-08-26T18:24:23.433Z,2.17
2022-08-26T18:26:50.952Z,2.20
2022-08-26T18:29:19.325Z,2.28
2022-08-26T18:31:46.620Z,2.20
2022-08-26T18:34:15.324Z,1.95
2022-08-26T18:36:42.784Z,1.90
2022-08-26T18:39:10.493Z,2.65
2022-08-26T18:41:46.878Z,2.10
2022-08-26T18:44:16.050Z,2.20
2022-08-26T18:46:44.229Z,2.17
2022-08-26T18:49:15.586Z,2.40
2022-08-26T18:51:43.443Z,1.88
2022-08-26T18:54:11.522Z,2.40
2022-08-26T18:56:39.749Z,2.30
2022-08-26T18:59:08.120Z,2.50
2022-08-26T19:01:36.553Z,2.15
2022-08-26T19:04:05.603Z,2.20
2022-08-26T19:06:35.363Z,1.95
2022-08-26T19:09:04.348Z,2.00
2022-08-26T19:11:32.204Z,1.60
2022-08-26T19:14:09.011Z,1.70
2022-08-26T19:16:37.284Z,2.10
2022-08-26T19:19:04.498Z,2.30
2022-08-26T19:21:33.107Z,2.40
2022-08-26T19:24:02.705Z,2.15
2022-08-26T19:26:30.941Z,2.45
2022-08-26T19:28:58.443Z,2.40
2022-08-26T19:31:25.960Z,3.42
2022-08-26T19:33:52.842Z,2.10
2022-08-26T19:36:23.615Z,2.08
2022-08-26T19:38:50.402Z,2.85
2022-08-26T19:41:37.597Z,2.22
2022-08-26T19:44:12.772Z,2.08
2022-08-26T19:46:39.806Z,1.95
2022-08-26T19:49:06.693Z,1.45
2022-08-26T19:51:35.636Z,1.80
2022-08-26T19:54:02.455Z,1.90
2022-08-26T19:56:29.500Z,2.10
2022-08-26T19:58:56.582Z,1.30
2022-08-26T20:01:23.895Z,1.55
2022-08-26T20:03:50.710Z,1.38
2022-08-26T20:06:18.480Z,1.80
2022-08-26T20:08:45.905Z,1.92
2022-08-26T20:11:17.195Z,1.50
2022-08-26T20:13:47.285Z,1.30
2022-08-26T20:16:15.269Z,1.40
2022-08-26T20:19:02.114Z,1.17
2022-08-26T20:21:32.990Z,1.05
2022-08-26T20:24:12.252Z,1.08
2022-08-26T20:26:41.252Z,1.10
2022-08-26T20:29:09.363Z,1.92
2022-08-26T20:31:36.689Z,1.23
2022-08-26T20:34:04.561Z,0.90
2022-08-26T20:36:32.126Z,0.82
2022-08-26T20:38:58.895Z,1.60
2022-08-26T20:41:26.377Z,1.25
2022-08-26T20:43:53.901Z,1.45
2022-08-26T20:46:24.669Z,1.30
2022-08-26T20:48:53.216Z,1.20
2022-08-26T20:51:22.782Z,1.48
2022-08-26T20:53:50.277Z,1.20
2022-08-26T20:56:22.107Z,1.50
2022-08-26T20:58:49.292Z,1.40
2022-08-26T21:01:30.585Z,0.98
2022-08-26T21:03:57.602Z,1.00
2022-08-26T21:06:24.538Z,1.10
2022-08-26T21:08:51.379Z,1.50
2022-08-26T21:11:20.059Z,1.40
2022-08-26T21:16:36.065Z,1.30
2022-08-26T21:19:05.710Z,1.58
2022-08-26T21:21:32.574Z,1.27
2022-08-26T21:23:59.575Z,1.63
2022-08-26T21:26:26.568Z,1.27
2022-08-26T21:28:54.024Z,1.35
2022-08-26T21:31:23.539Z,1.20
2022-08-26T21:33:50.914Z,1.98
2022-08-26T21:36:18.785Z,1.50
2022-08-26T21:38:45.772Z,1.42
2022-08-26T21:41:20.687Z,2.15
2022-08-26T21:43:48.827Z,1.50
2022-08-26T21:46:18.858Z,1.50
2022-08-26T21:48:59.575Z,2.20
2022-08-26T21:51:32.348Z,1.40
2022-08-26T21:54:00.599Z,1.75
2022-08-26T21:56:31.468Z,1.60
2022-08-26T21:58:59.514Z,1.83
2022-08-26T22:01:31.651Z,1.70
2022-08-26T22:03:58.690Z,2.20
2022-08-26T22:06:27.467Z,2.10
2022-08-26T22:08:54.647Z,2.10
2022-08-26T22:11:21.906Z,2.10
2022-08-26T22:13:49.205Z,2.22
2022-08-26T22:16:15.996Z,2.28
2022-08-26T22:18:45.714Z,2.08
2022-08-26T22:21:17.095Z,1.65
2022-08-26T22:23:44.518Z,1.85
2022-08-26T22:26:13.437Z,1.70
2022-08-26T22:28:40.901Z,1.55
2022-08-26T22:31:11.109Z,1.13
2022-08-26T22:33:38.877Z,1.55
2022-08-26T22:36:06.373Z,1.52
2022-08-26T22:38:33.054Z,1.45
2022-08-26T22:41:00.596Z,2.05
2022-08-26T22:43:28.961Z,1.88
2022-08-26T22:45:56.475Z,1.48
2022-08-26T22:48:25.470Z,1.20
2022-08-26T22:50:58.258Z,1.08
2022-08-26T22:53:27.017Z,1.50
2022-08-26T22:55:54.321Z,1.20
2022-08-26T22:58:21.285Z,1.30
2022-08-26T23:00:57.785Z,1.60
2022-08-26T23:03:27.159Z,1.30
2022-08-26T23:05:55.491Z,1.27
2022-08-26T23:08:23.133Z,1.20
2022-08-26T23:10:50.645Z,1.00
2022-08-26T23:13:18.242Z,1.15
2022-08-26T23:15:45.923Z,1.50
2022-08-26T23:18:14.486Z,1.35
2022-08-26T23:20:42.278Z,1.40
2022-08-26T23:23:09.422Z,1.40
2022-08-26T23:25:36.075Z,1.20
2022-08-26T23:28:03.093Z,1.42
2022-08-26T23:30:32.177Z,1.25
2022-08-26T23:32:58.993Z,1.20
2022-08-26T23:35:26.589Z,1.10
2022-08-26T23:37:53.598Z,1.55
2022-08-26T23:40:25.154Z,1.30
2022-08-26T23:42:53.657Z,1.10
2022-08-26T23:45:21.281Z,1.45
2022-08-26T23:47:50.457Z,1.15
2022-08-26T23:50:19.761Z,1.40
2022-08-26T23:53:05.603Z,1.30
2022-08-26T23:55:39.369Z,1.40
2022-08-26T23:58:06.456Z,1.48
